createdAt,value
2022-09-04T00:00:03.621Z,95894.09
2022-09-04T00:03:15.725Z,95903.31
2022-09-04T00:06:05.717Z,95900.81
2022-09-04T00:08:51.795Z,95907.06
2022-09-04T00:11:44.711Z,95897.97
2022-09-04T00:14:37.173Z,95904.84
2022-09-04T00:17:34.562Z,95884.19
2022-09-04T00:20:20.504Z,95923.25
2022-09-04T00:23:12.327Z,95905.91
2022-09-04T00:26:03.778Z,95916.75
2022-09-04T00:28:54.181Z,95928.56
2022-09-04T00:31:48.392Z,95915.25
2022-09-04T00:34:55.831Z,95934.94
2022-09-04T00:38:06.652Z,95927.03
2022-09-04T00:41:15.208Z,95929.97
2022-09-04T00:44:28.249Z,95931.28
2022-09-04T00:47:17.466Z,95919.09
2022-09-04T00:50:07.237Z,95920.88
2022-09-04T00:53:21.279Z,95921.00
2022-09-04T00:56:36.517Z,95897.22
2022-09-04T00:59:34.864Z,95917.56
2022-09-04T01:02:36.138Z,95934.91
2022-09-04T01:05:32.221Z,95920.59
2022-09-04T01:08:31.485Z,95892.03
2022-09-04T01:11:29.735Z,95921.75
2022-09-04T01:14:20.849Z,95923.16
2022-09-04T01:17:15.016Z,95929.53
2022-09-04T01:20:14.658Z,95919.00
2022-09-04T01:23:19.049Z,95939.66
2022-09-04T01:26:04.853Z,95943.56
2022-09-04T01:29:28.531Z,95936.13
2022-09-04T01:32:38.918Z,95935.28
2022-09-04T01:35:33.962Z,95931.53
2022-09-04T01:38:34.376Z,95899.63
2022-09-04T01:41:24.718Z,95913.00
2022-09-04T01:44:12.306Z,95906.16
2022-09-04T01:47:17.297Z,95913.00
2022-09-04T01:50:10.787Z,95913.44
2022-09-04T01:53:25.936Z,95913.56
2022-09-04T01:56:44.100Z,95907.19
2022-09-04T01:59:33.897Z,95898.34
2022-09-04T02:02:46.933Z,95888.97
2022-09-04T02:05:56.765Z,95905.91
2022-09-04T02:08:47.367Z,95899.66
2022-09-04T02:11:33.840Z,95924.34
2022-09-04T02:14:22.956Z,95902.13
2022-09-04T02:17:28.106Z,95907.34
2022-09-04T02:20:32.671Z,95905.66
2022-09-04T02:23:30.089Z,95891.66
2022-09-04T02:26:42.970Z,95899.56
2022-09-04T02:29:47.796Z,95885.75
2022-09-04T02:32:40.152Z,95904.78
2022-09-04T02:35:50.971Z,95898.53
2022-09-04T02:38:55.093Z,95891.44
2022-09-04T02:42:03.916Z,95872.66
2022-09-04T02:45:01.435Z,95887.63
2022-09-04T02:47:52.809Z,95878.09
2022-09-04T02:51:13.804Z,95912.31
2022-09-04T02:54:09.875Z,95903.72
2022-09-04T02:57:17.607Z,95897.13
2022-09-04T03:00:18.348Z,95921.75
2022-09-04T03:03:18.612Z,95928.25
2022-09-04T03:06:14.646Z,95929.28
2022-09-04T03:09:06.625Z,95926.41
2022-09-04T03:12:36.547Z,95935.75
2022-09-04T03:15:28.331Z,95911.28
2022-09-04T03:18:31.040Z,95934.25
2022-09-04T03:21:24.296Z,95910.38
2022-09-04T03:24:19.541Z,95936.97
2022-09-04T03:27:08.843Z,95934.09
2022-09-04T03:30:02.045Z,95955.34
2022-09-04T03:33:03.821Z,95944.25
2022-09-04T03:36:11.904Z,95949.66
2022-09-04T03:39:05.017Z,95946.38
2022-09-04T03:42:10.229Z,95942.59
2022-09-04T03:45:02.160Z,95930.09
2022-09-04T03:47:53.907Z,95935.66
2022-09-04T03:50:49.324Z,95935.28
2022-09-04T03:54:02.036Z,95936.94
2022-09-04T03:57:10.705Z,95934.91
2022-09-04T03:59:59.801Z,95941.53
2022-09-04T04:03:02.982Z,95947.19
2022-09-04T04:06:02.566Z,95934.69
2022-09-04T04:09:20.886Z,95939.25
2022-09-04T04:12:27.542Z,95948.44
2022-09-04T04:15:21.366Z,95930.78
2022-09-04T04:18:29.974Z,95947.63
2022-09-04T04:21:31.275Z,95951.53
2022-09-04T04:25:03.031Z,95945.22
2022-09-04T04:28:07.245Z,95954.78
2022-09-04T04:30:54.689Z,95929.44
2022-09-04T04:33:49.804Z,95954.94
2022-09-04T04:37:11.252Z,95961.03
2022-09-04T04:40:06.072Z,95947.34
2022-09-04T04:43:20.140Z,95958.91
2022-09-04T04:46:24.862Z,95966.44
2022-09-04T04:49:37.234Z,95970.81
2022-09-04T04:52:55.833Z,95969.59
2022-09-04T04:56:04.747Z,95963.72
2022-09-04T04:58:54.000Z,95942.97
2022-09-04T05:02:07.877Z,95948.53
2022-09-04T05:05:02.597Z,95945.34
2022-09-04T05:08:07.577Z,95947.41
2022-09-04T05:11:06.392Z,95934.91
2022-09-04T05:14:20.802Z,95932.88
2022-09-04T05:17:25.203Z,95950.94
2022-09-04T05:20:29.427Z,95929.00
2022-09-04T05:23:39.783Z,95942.34
2022-09-04T05:26:44.368Z,95939.66
2022-09-04T05:29:47.469Z,95935.81
2022-09-04T05:32:38.068Z,95916.94
2022-09-04T05:35:45.010Z,95941.97
2022-09-04T05:38:59.498Z,95942.13
2022-09-04T05:42:06.752Z,95939.19
2022-09-04T05:44:57.412Z,95949.31
2022-09-04T05:48:27.301Z,95918.72
2022-09-04T05:51:42.089Z,95948.16
2022-09-04T05:54:45.807Z,95948.38
2022-09-04T05:57:53.020Z,95956.22
2022-09-04T06:01:08.143Z,95964.34
2022-09-04T06:04:19.316Z,95958.41
2022-09-04T06:07:13.788Z,95993.88
2022-09-04T06:10:03.162Z,95990.03
2022-09-04T06:13:07.537Z,95987.56
2022-09-04T06:16:02.459Z,95975.53
2022-09-04T06:19:15.096Z,95977.06
2022-09-04T06:22:17.374Z,95974.66
2022-09-04T06:25:06.096Z,95962.00
2022-09-04T06:28:13.253Z,95973.13
2022-09-04T06:31:21.220Z,95978.69
2022-09-04T06:34:39.948Z,95984.47
2022-09-04T06:37:36.510Z,95980.50
2022-09-04T06:41:00.174Z,95974.56
2022-09-04T06:43:58.088Z,95977.78
2022-09-04T06:46:56.608Z,95971.66
2022-09-04T06:50:11.675Z,95987.53
2022-09-04T06:53:01.002Z,95992.16
2022-09-04T06:56:07.118Z,95985.53
2022-09-04T06:59:01.085Z,95978.81
2022-09-04T07:02:17.620Z,95959.13
2022-09-04T07:05:22.135Z,95949.66
2022-09-04T07:08:08.073Z,95970.38
2022-09-04T07:11:20.669Z,95968.47
2022-09-04T07:14:29.653Z,95976.38
2022-09-04T07:17:34.837Z,95975.91
2022-09-04T07:20:30.023Z,95983.38
2022-09-04T07:23:20.994Z,95987.59
2022-09-04T07:26:13.451Z,95987.53
2022-09-04T07:28:59.404Z,95982.28
2022-09-04T07:32:07.228Z,95979.09
2022-09-04T07:35:03.126Z,95992.09
2022-09-04T07:37:58.587Z,95995.16
2022-09-04T07:41:09.321Z,95981.34
2022-09-04T07:44:23.475Z,95995.75
2022-09-04T07:47:16.538Z,95985.44
2022-09-04T07:50:22.846Z,96000.06
2022-09-04T07:53:27.206Z,95995.56
2022-09-04T07:56:31.721Z,96005.72
2022-09-04T08:15:28.791Z,95994.91
2022-09-04T08:18:36.713Z,95996.44
2022-09-04T08:21:31.435Z,95982.75
2022-09-04T08:24:36.146Z,95984.88
2022-09-04T08:27:44.418Z,95986.78
2022-09-04T08:30:39.934Z,95984.69
2022-09-04T08:33:38.214Z,95988.88
2022-09-04T08:36:42.361Z,95968.03
2022-09-04T08:40:11.443Z,95965.47
2022-09-04T08:43:06.557Z,95961.19
2022-09-04T08:46:11.704Z,95942.13
2022-09-04T08:49:17.117Z,95952.69
2022-09-04T08:52:40.916Z,95952.69
2022-09-04T08:55:50.397Z,95945.81
2022-09-04T08:59:04.879Z,95943.06
2022-09-04T09:02:06.014Z,95929.16
2022-09-04T09:05:28.405Z,95945.31
2022-09-04T09:08:14.347Z,95939.31
2022-09-04T09:11:25.377Z,95937.16
2022-09-04T09:14:41.966Z,95935.66
2022-09-04T09:17:54.220Z,95944.47
2022-09-04T09:20:45.438Z,95950.41
2022-09-04T09:23:56.446Z,95956.22
2022-09-04T09:26:55.507Z,95951.97
2022-09-04T09:30:00.241Z,95956.97
2022-09-04T09:33:03.875Z,95952.06
2022-09-04T09:35:57.948Z,95944.91
2022-09-04T09:39:36.742Z,95917.59
2022-09-04T09:42:31.554Z,95912.00
2022-09-04T09:45:38.289Z,95906.38
2022-09-04T09:48:30.535Z,95939.59
2022-09-04T09:51:31.506Z,95917.97
2022-09-04T09:54:23.707Z,95941.41
2022-09-04T09:57:33.972Z,95938.75
2022-09-04T10:00:23.710Z,95933.34
2022-09-04T10:03:51.907Z,95928.13
2022-09-04T10:06:56.679Z,95937.25
2022-09-04T10:10:30.324Z,95924.59
2022-09-04T10:13:28.292Z,95898.41
2022-09-04T10:16:46.125Z,95914.41
2022-09-04T10:20:08.749Z,95906.50
2022-09-04T10:23:07.697Z,95908.44
2022-09-04T10:26:15.641Z,95893.13
2022-09-04T10:29:14.098Z,95886.31
2022-09-04T10:32:09.407Z,95887.13
2022-09-04T10:35:25.475Z,95870.44
2022-09-04T10:38:20.827Z,95866.00
2022-09-04T10:41:39.537Z,95875.63
2022-09-04T10:44:40.267Z,95868.47
2022-09-04T10:47:41.430Z,95847.09
2022-09-04T10:51:08.257Z,95869.25
2022-09-04T10:54:30.418Z,95864.38
2022-09-04T10:57:44.150Z,95867.63
2022-09-04T11:00:50.602Z,95851.16
2022-09-04T11:04:03.397Z,95851.69
2022-09-04T11:06:58.419Z,95856.06
2022-09-04T11:09:59.637Z,95833.56
2022-09-04T11:12:45.370Z,95859.25
2022-09-04T11:16:30.056Z,95852.97
2022-09-04T11:19:37.573Z,95849.09
2022-09-04T11:22:34.538Z,95839.44
2022-09-04T11:25:44.974Z,95835.44
2022-09-04T11:28:46.738Z,95840.84
2022-09-04T11:32:21.851Z,95833.47
2022-09-04T11:35:46.194Z,95835.56
2022-09-04T11:38:44.143Z,95838.81
2022-09-04T11:41:58.773Z,95835.50
2022-09-04T11:45:17.246Z,95838.34
2022-09-04T11:48:26.496Z,95817.41
2022-09-04T11:51:33.160Z,95819.16
2022-09-04T11:55:14.187Z,95805.34
2022-09-04T11:58:46.740Z,95806.97
2022-09-04T12:01:35.142Z,95801.31
2022-09-04T12:04:42.770Z,95799.94
2022-09-04T12:07:58.015Z,95794.56
2022-09-04T12:10:59.510Z,95789.75
2022-09-04T12:14:30.153Z,95806.59
2022-09-04T12:17:34.608Z,95792.22
2022-09-04T12:20:51.397Z,95796.28
2022-09-04T12:24:14.382Z,95784.72
2022-09-04T12:27:21.854Z,95787.41
2022-09-04T12:30:23.705Z,95789.09
2022-09-04T12:33:34.660Z,95792.09
2022-09-04T12:36:48.424Z,95794.16
2022-09-04T12:40:04.163Z,95780.41
2022-09-04T12:43:01.227Z,95773.72
2022-09-04T12:46:06.118Z,95781.72
2022-09-04T12:49:04.367Z,95779.16
2022-09-04T12:52:27.005Z,95778.59
2022-09-04T12:55:19.518Z,95769.91
2022-09-04T12:58:08.165Z,95742.72
2022-09-04T13:01:45.663Z,95766.66
2022-09-04T13:04:44.778Z,95759.41
2022-09-04T13:07:58.749Z,95766.03
2022-09-04T13:11:03.619Z,95764.66
2022-09-04T13:14:11.270Z,95761.28
2022-09-04T13:17:16.869Z,95755.38
2022-09-04T13:20:20.536Z,95747.59
2022-09-04T13:23:39.132Z,95756.19
2022-09-04T13:27:07.917Z,95747.91
2022-09-04T13:30:09.664Z,95736.72
2022-09-04T13:33:20.712Z,95750.59
2022-09-04T13:36:22.314Z,95747.88
2022-09-04T13:39:19.565Z,95739.88
2022-09-04T13:42:28.572Z,95734.88
2022-09-04T13:45:23.222Z,95736.06
2022-09-04T13:48:20.237Z,95724.75
2022-09-04T13:51:29.994Z,95778.16
2022-09-04T13:54:21.467Z,95791.38
2022-09-04T13:57:28.792Z,95779.44
2022-09-04T14:00:17.094Z,95796.94
2022-09-04T14:03:07.268Z,95771.31
2022-09-04T14:05:53.397Z,95789.50
2022-09-04T14:08:39.962Z,95775.09
2022-09-04T14:11:58.322Z,95799.81
2022-09-04T14:15:07.695Z,95786.06
2022-09-04T14:18:14.085Z,95789.75
2022-09-04T14:21:33.334Z,95789.09
2022-09-04T14:24:34.559Z,95778.19
2022-09-04T14:27:35.421Z,95777.09
2022-09-04T14:30:23.079Z,95783.19
2022-09-04T14:33:19.420Z,95786.78
2022-09-04T14:36:43.213Z,95799.72
2022-09-04T14:39:35.639Z,95794.78
2022-09-04T14:42:46.112Z,95826.84
2022-09-04T14:45:53.221Z,95832.59
2022-09-04T14:48:42.057Z,95855.06
2022-09-04T14:51:28.873Z,95848.19
2022-09-04T14:54:30.942Z,95862.16
2022-09-04T14:57:22.888Z,95867.66
2022-09-04T15:00:09.587Z,95869.28
2022-09-04T15:02:58.724Z,95892.50
2022-09-04T15:05:56.770Z,95901.22
2022-09-04T15:08:44.388Z,95917.06
2022-09-04T15:11:33.442Z,95910.69
2022-09-04T15:14:34.370Z,95921.38
2022-09-04T15:17:28.678Z,95914.16
2022-09-04T15:20:36.127Z,95941.47
2022-09-04T15:23:55.949Z,95983.69
2022-09-04T15:26:51.466Z,95997.44
2022-09-04T15:29:38.496Z,96017.78
2022-09-04T15:32:26.799Z,96038.19
2022-09-04T15:35:28.347Z,96031.56
2022-09-04T15:38:27.370Z,96036.50
2022-09-04T15:41:27.485Z,96043.31
2022-09-04T15:44:40.868Z,96054.66
2022-09-04T15:47:55.838Z,96046.31
2022-09-04T15:51:19.029Z,96052.63
2022-09-04T15:54:07.826Z,96056.19
2022-09-04T15:57:08.581Z,96048.16
2022-09-04T16:00:26.446Z,96044.78
2022-09-04T16:03:29.186Z,96025.38
2022-09-04T16:06:20.656Z,96022.06
2022-09-04T16:09:29.348Z,96028.97
2022-09-04T16:12:26.438Z,96023.97
2022-09-04T16:15:23.018Z,96017.56
2022-09-04T16:18:39.820Z,96021.31
2022-09-04T16:21:43.457Z,96005.69
2022-09-04T16:24:35.636Z,96015.84
2022-09-04T16:27:24.573Z,96010.72
2022-09-04T16:30:26.493Z,95997.66
2022-09-04T16:33:27.873Z,95997.91
2022-09-04T16:36:17.081Z,95995.25
2022-09-04T16:39:23.373Z,95986.44
2022-09-04T16:42:21.877Z,95981.47
2022-09-04T16:45:15.965Z,95974.38
2022-09-04T16:48:33.540Z,95963.97
2022-09-04T16:51:41.507Z,95971.88
2022-09-04T16:54:35.563Z,95952.69
2022-09-04T16:57:29.913Z,95942.13
2022-09-04T17:00:17.696Z,95960.53
2022-09-04T17:03:19.157Z,95958.06
2022-09-04T17:06:18.813Z,95959.06
2022-09-04T17:09:21.308Z,95957.03
2022-09-04T17:12:40.576Z,95987.16
2022-09-04T17:15:37.263Z,95982.56
2022-09-04T17:18:25.000Z,95990.63
2022-09-04T17:25:47.190Z,95993.47
2022-09-04T17:29:03.745Z,96001.38
2022-09-04T17:29:10.936Z,96009.28
2022-09-04T17:31:45.581Z,96011.63
2022-09-04T17:40:44.531Z,96022.16
2022-09-04T17:40:55.715Z,96022.16
2022-09-04T17:41:39.509Z,96033.06
2022-09-04T17:44:35.524Z,96030.13
2022-09-04T17:47:32.316Z,96036.38
2022-09-04T17:50:22.619Z,96033.66
2022-09-04T17:53:20.016Z,96035.34
2022-09-04T17:56:23.029Z,96038.88
2022-09-04T17:59:23.270Z,96046.81
2022-09-04T18:02:23.387Z,96056.06
2022-09-04T18:05:13.374Z,96065.88
2022-09-04T18:08:11.233Z,96057.59
2022-09-04T18:11:01.093Z,96060.16
2022-09-04T18:14:32.081Z,96071.47
2022-09-04T18:17:29.267Z,96076.28
2022-09-04T18:20:29.510Z,96075.38
2022-09-04T18:23:51.649Z,96088.84
2022-09-04T18:26:40.530Z,96094.81
2022-09-04T18:30:51.879Z,96072.03
2022-09-04T18:37:12.565Z,96095.84
2022-09-04T18:37:16.622Z,96106.59
2022-09-04T18:39:38.794Z,96110.72
2022-09-04T18:50:28.772Z,96106.09
2022-09-04T18:50:29.202Z,96117.25
2022-09-04T18:50:30.654Z,96099.66
2022-09-04T18:52:16.040Z,96110.97
2022-09-04T18:55:09.123Z,96110.63
2022-09-04T18:57:55.921Z,96117.25
2022-09-04T19:01:20.469Z,96118.47
2022-09-04T19:04:31.846Z,96111.03
2022-09-04T19:07:34.508Z,96134.59
2022-09-04T19:10:25.786Z,96131.25
2022-09-04T19:13:22.632Z,96117.44
2022-09-04T19:16:11.896Z,96090.00
2022-09-04T19:19:17.162Z,96135.16
2022-09-04T19:22:21.453Z,96138.75
2022-09-04T19:25:22.906Z,96140.78
2022-09-04T19:28:13.782Z,96134.59
2022-09-04T19:31:06.302Z,96129.53
2022-09-04T19:34:23.632Z,96134.69
2022-09-04T19:38:34.036Z,96139.50
2022-09-04T19:46:00.738Z,96143.31
2022-09-04T19:46:17.657Z,96108.09
2022-09-04T19:47:27.362Z,96131.63
2022-09-04T19:53:19.219Z,96149.47
2022-09-04T19:53:46.960Z,96140.66
2022-09-04T19:57:31.472Z,96152.00
2022-09-04T20:00:38.238Z,96155.56
2022-09-04T20:03:33.808Z,96138.88
2022-09-04T20:06:24.692Z,96149.28
2022-09-04T20:09:28.653Z,96152.00
2022-09-04T20:12:34.186Z,96132.41
2022-09-04T20:15:25.974Z,96147.75
2022-09-04T20:18:26.453Z,96148.59
2022-09-04T20:21:24.185Z,96150.72
2022-09-04T20:24:19.339Z,96127.94
2022-09-04T20:27:20.409Z,96149.66
2022-09-04T20:30:32.919Z,96147.91
2022-09-04T20:33:24.573Z,96155.09
2022-09-04T20:36:12.943Z,96114.72
2022-09-04T20:39:24.103Z,96156.19
2022-09-04T20:42:22.462Z,96148.38
2022-09-04T20:48:07.742Z,96163.41
2022-09-04T20:52:50.064Z,96166.38
2022-09-04T20:52:51.140Z,96160.84
2022-09-04T20:54:59.032Z,96152.91
2022-09-04T21:03:08.923Z,96157.66
2022-09-04T21:03:21.364Z,96165.47
2022-09-04T21:04:53.494Z,96159.75
2022-09-04T21:07:47.563Z,96151.97
2022-09-04T21:10:49.140Z,96153.50
2022-09-04T21:13:48.077Z,96158.34
2022-09-04T21:16:55.914Z,96163.09
2022-09-04T21:19:54.241Z,96161.31
2022-09-04T21:22:48.656Z,96163.34
2022-09-04T21:25:40.894Z,96154.47
2022-09-04T21:28:30.908Z,96132.38
2022-09-04T21:31:43.335Z,96157.78
2022-09-04T21:35:02.129Z,96149.16
2022-09-04T21:37:58.225Z,96153.53
2022-09-04T21:41:02.744Z,96156.84
2022-09-04T21:43:48.821Z,96154.84
2022-09-04T21:46:58.386Z,96146.53
2022-09-04T21:50:23.057Z,96144.88
2022-09-04T21:53:45.723Z,96147.38
2022-09-04T22:01:39.584Z,96147.97
2022-09-04T22:02:35.465Z,96148.78
2022-09-04T22:03:44.509Z,96145.00
2022-09-04T22:10:10.183Z,96140.06
2022-09-04T22:13:41.297Z,96137.91
2022-09-04T22:13:50.156Z,96139.22
2022-09-04T22:16:42.537Z,96128.47
2022-09-04T22:19:47.090Z,96136.25
2022-09-04T22:22:38.876Z,96138.72
2022-09-04T22:25:39.853Z,96108.72
2022-09-04T22:28:41.322Z,96131.78
2022-09-04T22:31:30.348Z,96130.34
2022-09-04T22:34:40.636Z,96109.06
2022-09-04T22:37:51.294Z,96109.31
2022-09-04T22:40:56.797Z,96130.81
2022-09-04T22:43:47.588Z,96116.41
2022-09-04T22:46:46.471Z,96126.44
2022-09-04T22:49:54.419Z,96115.91
2022-09-04T22:53:03.687Z,96114.41
2022-09-04T22:56:24.735Z,96112.50
2022-09-04T22:59:30.619Z,96119.13
2022-09-04T23:03:07.733Z,96104.34
2022-09-04T23:07:43.752Z,96117.34
2022-09-04T23:13:48.740Z,96123.53
2022-09-04T23:14:00.809Z,96112.50
2022-09-04T23:16:01.698Z,96114.63
2022-09-04T23:23:15.643Z,96116.31
2022-09-04T23:26:50.722Z,96110.16
2022-09-04T23:27:00.997Z,96106.38
2022-09-04T23:30:27.101Z,96091.94
2022-09-04T23:33:29.359Z,96103.19
2022-09-04T23:36:51.052Z,96097.25
2022-09-04T23:39:43.390Z,96096.91
2022-09-04T23:43:03.254Z,96097.72
2022-09-04T23:46:18.511Z,96109.81
2022-09-04T23:49:32.121Z,96101.75
2022-09-04T23:52:48.792Z,96083.66
2022-09-04T23:55:59.562Z,96105.94
2022-09-04T23:59:04.207Z,96079.28
